CWSW

Sparwood / Elk Valley  Airport

Sparwood/Elk Valley, Canada

CWSW 241400Z 17008G16KT 130V210 15SM FEW043 BKN056 BKN220 03/M05 A2986 RMK SC2SC3CI2 SLP139

Observed Flight Rules
Nov-24 @ 14:00 UTC (54 minutes ago)
 
Visual Flight Rules
Wind Visibility Clouds
170° at 8 knots
 Gusting to 16 knots
15 miles
  • Few at 4,300' AGL
  • Broken at 5,600' AGL
  • Broken at 22,000' AGL
Temperatures Readings
Current 3°C / 37°F
Dewpoint -5°C / 23°F
Humidity 56%
Altimeter 29.86" Hg
Pressure 1013.9 hPa
Elevation 1138
Observed Flight Rules
Nov-24 @ 14:00 UTC
(54 minutes ago)
 
VFR
Wind Visibility
170° at 8 knots
 Gusting to 16 knots
15 miles
Clouds
  • Few at 4,300' AGL
  • Broken at 5,600' AGL
  • Broken at 22,000' AGL
Temperature Dewpoint
3°C / 37°F -5°C / 23°F
Humidity Altimeter Pressure
56% 29.86" Hg 1013.9 hPa